createdAt,value
2019-04-06T00:00:08.177Z,26.55
2019-04-06T00:02:38.652Z,24.92
2019-04-06T00:05:08.511Z,26.45
2019-04-06T00:07:37.489Z,24.92
2019-04-06T00:10:07.367Z,23.87
2019-04-06T00:12:36.322Z,25.20
2019-04-06T00:15:07.077Z,23.05
2019-04-06T00:17:36.832Z,23.62
2019-04-06T00:20:07.310Z,23.98
2019-04-06T00:22:36.251Z,25.45
2019-04-06T00:25:06.977Z,23.07
2019-04-06T00:27:35.984Z,22.17
2019-04-06T00:30:09.705Z,23.07
2019-04-06T00:32:43.393Z,20.20
2019-04-06T00:35:14.177Z,24.77
2019-04-06T00:37:43.202Z,22.13
2019-04-06T00:40:12.307Z,18.37
2019-04-06T00:42:42.847Z,18.52
2019-04-06T00:45:13.670Z,20.85
2019-04-06T00:47:42.643Z,20.20
2019-04-06T00:50:12.156Z,18.92
2019-04-06T00:52:41.166Z,19.10
2019-04-06T00:55:10.111Z,18.27
2019-04-06T00:57:39.084Z,17.35
2019-04-06T01:00:08.600Z,19.02
2019-04-06T01:02:37.639Z,19.65
2019-04-06T01:05:07.951Z,17.87
2019-04-06T01:07:38.487Z,18.60
2019-04-06T01:10:07.503Z,15.93
2019-04-06T01:12:36.484Z,16.93
2019-04-06T01:15:07.072Z,16.87
2019-04-06T01:17:38.370Z,17.70
2019-04-06T01:20:07.470Z,16.05
2019-04-06T01:22:36.504Z,19.82
2019-04-06T01:25:09.146Z,19.92
2019-04-06T01:27:38.188Z,18.15
2019-04-06T01:30:08.740Z,18.12
2019-04-06T01:32:37.769Z,17.45
2019-04-06T01:35:09.482Z,18.48
2019-04-06T01:37:38.460Z,18.42
2019-04-06T01:40:07.715Z,14.98
2019-04-06T01:42:38.178Z,16.35
2019-04-06T01:45:07.701Z,17.35
2019-04-06T01:47:36.751Z,18.75
2019-04-06T01:50:06.538Z,16.93
2019-04-06T01:52:35.529Z,17.23
2019-04-06T01:55:04.939Z,14.85
2019-04-06T01:57:33.894Z,16.73
2019-04-06T02:00:02.867Z,16.07
2019-04-06T02:02:36.271Z,15.98
2019-04-06T02:05:07.874Z,16.82
2019-04-06T02:07:36.907Z,16.67
2019-04-06T02:10:07.651Z,20.32
2019-04-06T02:12:39.496Z,17.62
2019-04-06T02:15:08.911Z,19.35
2019-04-06T02:17:39.212Z,18.95
2019-04-06T02:20:10.012Z,18.52
2019-04-06T02:22:40.236Z,17.50
2019-04-06T02:25:09.162Z,17.55
2019-04-06T02:27:38.133Z,22.02
2019-04-06T02:30:11.234Z,19.32
2019-04-06T02:32:41.941Z,21.35
2019-04-06T02:35:28.596Z,19.70
2019-04-06T02:38:15.439Z,23.55
2019-04-06T02:41:00.255Z,25.48
2019-04-06T02:43:34.804Z,23.57
2019-04-06T02:46:03.850Z,22.70
2019-04-06T02:48:34.293Z,28.65
2019-04-06T02:51:03.266Z,26.95
2019-04-06T02:53:32.304Z,24.18
2019-04-06T02:56:01.209Z,25.08
2019-04-06T02:58:30.106Z,30.15
2019-04-06T03:00:58.986Z,24.45
2019-04-06T03:03:46.666Z,29.70
2019-04-06T03:06:15.573Z,28.23
2019-04-06T03:08:44.497Z,28.27
2019-04-06T03:11:13.461Z,30.92
2019-04-06T03:13:44.069Z,30.75
2019-04-06T03:16:15.991Z,28.75
2019-04-06T03:18:44.932Z,27.75
2019-04-06T03:21:14.167Z,31.52
2019-04-06T03:23:50.376Z,31.90
2019-04-06T03:26:13.752Z,30.77
2019-04-06T03:28:42.682Z,31.93
2019-04-06T03:31:22.785Z,29.60
2019-04-06T03:33:47.694Z,33.35
2019-04-06T03:36:16.712Z,29.70
2019-04-06T03:38:45.749Z,30.50
2019-04-06T03:41:14.787Z,35.28
2019-04-06T03:43:43.695Z,31.25
2019-04-06T03:46:12.674Z,32.15
2019-04-06T03:48:41.695Z,32.10
2019-04-06T03:51:12.236Z,32.98
2019-04-06T03:53:41.237Z,31.15
2019-04-06T03:56:11.962Z,32.38
2019-04-06T03:58:42.660Z,29.60
2019-04-06T04:01:11.592Z,34.60
2019-04-06T04:03:40.677Z,32.40
2019-04-06T04:06:09.673Z,31.48
2019-04-06T04:08:42.370Z,32.65
2019-04-06T04:11:13.971Z,33.80
2019-04-06T04:13:44.456Z,33.98
2019-04-06T04:16:19.611Z,37.40
2019-04-06T04:18:51.137Z,33.05
2019-04-06T04:21:21.640Z,36.75
2019-04-06T04:23:50.738Z,33.08
2019-04-06T04:26:19.862Z,36.00
2019-04-06T04:28:48.906Z,35.45
2019-04-06T04:31:20.850Z,35.50
2019-04-06T04:33:50.006Z,32.13
2019-04-06T04:36:19.219Z,33.80
2019-04-06T04:38:51.054Z,35.90
2019-04-06T04:41:20.141Z,33.92
2019-04-06T04:43:52.124Z,30.72
2019-04-06T04:46:23.118Z,30.30
2019-04-06T04:48:51.728Z,31.87
2019-04-06T04:51:20.692Z,30.17
2019-04-06T04:53:49.677Z,29.92
2019-04-06T04:56:18.908Z,33.13
2019-04-06T04:58:48.019Z,38.50
2019-04-06T05:01:18.570Z,35.20
2019-04-06T05:03:49.144Z,34.70
2019-04-06T05:06:18.248Z,34.23
2019-04-06T05:08:47.537Z,32.38
2019-04-06T05:11:16.548Z,32.25
2019-04-06T05:13:46.905Z,33.58
2019-04-06T05:16:17.389Z,35.20
2019-04-06T05:18:46.345Z,35.13
2019-04-06T05:21:16.604Z,29.20
2019-04-06T05:23:45.544Z,29.82
2019-04-06T05:26:14.542Z,31.50
2019-04-06T05:48:50.229Z,30.53
2019-04-06T05:52:25.419Z,29.72
2019-04-06T05:54:58.887Z,29.32
2019-04-06T05:57:31.610Z,25.43
2019-04-06T05:59:58.562Z,25.48
2019-04-06T06:02:27.538Z,25.80
2019-04-06T06:04:56.534Z,24.85
2019-04-06T06:07:25.545Z,26.15
2019-04-06T06:09:55.454Z,23.10
2019-04-06T06:12:25.880Z,27.22
2019-04-06T06:14:54.880Z,23.83
2019-04-06T06:17:26.688Z,25.80
2019-04-06T06:19:59.604Z,22.02
2019-04-06T06:22:27.881Z,24.30
2019-04-06T06:24:56.929Z,23.22
2019-04-06T06:27:27.548Z,20.23
2019-04-06T06:29:56.539Z,23.02
2019-04-06T06:32:25.488Z,19.42
2019-04-06T06:34:54.446Z,19.35
2019-04-06T06:37:23.435Z,21.52
2019-04-06T06:39:52.379Z,23.45
2019-04-06T06:42:21.305Z,22.02
2019-04-06T06:44:50.206Z,25.75
2019-04-06T06:47:19.135Z,23.65
2019-04-06T06:49:55.585Z,23.67
2019-04-06T06:52:24.711Z,22.85
2019-04-06T06:54:53.622Z,29.82
2019-04-06T06:57:32.085Z,25.10
2019-04-06T07:00:06.788Z,17.82
2019-04-06T07:02:34.539Z,27.07
2019-04-06T07:05:18.202Z,24.67
2019-04-06T07:07:47.487Z,25.57
2019-04-06T07:10:16.478Z,27.62
2019-04-06T07:12:45.358Z,27.50
2019-04-06T07:15:18.015Z,29.52
2019-04-06T07:17:50.013Z,28.07
2019-04-06T07:20:36.956Z,29.45
2019-04-06T07:23:10.653Z,31.05
2019-04-06T07:25:43.997Z,34.50
2019-04-06T07:41:10.652Z,34.10
2019-04-06T07:56:55.729Z,29.27
2019-04-06T08:15:55.351Z,32.00
2019-04-06T08:21:28.553Z,31.65
2019-04-06T08:23:57.549Z,32.67
2019-04-06T08:26:46.938Z,31.37
2019-04-06T08:29:15.955Z,29.82
2019-04-06T08:31:47.908Z,32.40
2019-04-06T08:34:17.924Z,31.95
2019-04-06T08:36:46.920Z,28.90
2019-04-06T08:39:15.933Z,29.23
2019-04-06T08:41:45.442Z,31.05
2019-04-06T08:44:14.505Z,29.02
2019-04-06T08:46:43.508Z,31.17
2019-04-06T08:49:12.970Z,32.20
2019-04-06T08:51:45.502Z,29.27
2019-04-06T08:54:15.913Z,29.72
2019-04-06T08:59:58.464Z,29.30
2019-04-06T09:08:38.463Z,22.10
2019-04-06T09:11:07.440Z,22.82
2019-04-06T09:13:36.333Z,23.47
2019-04-06T09:16:05.553Z,23.70
2019-04-06T09:18:58.739Z,25.77
2019-04-06T09:27:47.924Z,19.80
2019-04-06T09:31:24.524Z,21.50
2019-04-06T09:33:10.786Z,24.07
2019-04-06T09:35:48.995Z,22.62
2019-04-06T10:49:57.675Z,17.05
2019-04-06T10:52:34.055Z,15.90
2019-04-06T10:55:07.056Z,14.80
2019-04-06T10:58:02.528Z,18.30
2019-04-06T11:03:53.599Z,16.52
2019-04-06T11:06:59.090Z,15.48
2019-04-06T11:09:32.552Z,17.42
2019-04-06T11:12:19.383Z,18.87
2019-04-06T11:14:56.858Z,18.42
2019-04-06T11:17:54.011Z,18.37
2019-04-06T11:20:46.813Z,22.25
2019-04-06T11:23:46.082Z,16.48
2019-04-06T11:26:44.383Z,17.35
2019-04-06T11:29:23.516Z,18.95
2019-04-06T11:32:19.626Z,19.05
2019-04-06T11:48:41.259Z,18.02
2019-04-06T11:51:23.996Z,19.23
2019-04-06T11:54:25.525Z,21.33
2019-04-06T11:57:21.354Z,21.50
2019-04-06T11:59:47.536Z,18.73
2019-04-06T12:02:32.285Z,19.82
2019-04-06T12:05:10.212Z,17.37
2019-04-06T12:08:37.682Z,23.25
2019-04-06T12:14:28.836Z,19.45
2019-04-06T12:20:13.182Z,16.75
2019-04-06T12:22:45.615Z,18.35
2019-04-06T12:25:25.235Z,13.15
2019-04-06T12:27:59.820Z,14.60
2019-04-06T12:30:48.153Z,14.75
2019-04-06T12:33:20.312Z,14.50
2019-04-06T12:36:00.207Z,15.65
2019-04-06T12:38:41.175Z,18.42
2019-04-06T12:41:13.432Z,16.25
2019-04-06T12:44:02.522Z,16.60
2019-04-06T12:46:35.784Z,12.03
2019-04-06T12:49:06.465Z,22.37
2019-04-06T12:51:55.584Z,16.10
2019-04-06T12:54:26.145Z,17.98
2019-04-06T12:57:08.771Z,15.95
2019-04-06T12:59:43.043Z,15.15
2019-04-06T13:02:19.778Z,18.05
2019-04-06T13:04:51.663Z,14.63
2019-04-06T13:07:32.782Z,19.50
2019-04-06T13:10:09.314Z,22.20
2019-04-06T13:12:41.245Z,19.32
2019-04-06T13:15:21.000Z,18.32
2019-04-06T13:18:02.004Z,18.85
2019-04-06T13:20:50.609Z,16.85
2019-04-06T13:23:24.147Z,15.20
2019-04-06T13:25:59.173Z,14.30
2019-04-06T13:28:36.090Z,13.70
2019-04-06T13:31:15.417Z,17.23
2019-04-06T13:33:51.683Z,11.97
2019-04-06T13:36:26.380Z,20.48
2019-04-06T13:41:54.116Z,16.62
2019-04-06T13:44:30.259Z,12.10
2019-04-06T13:47:40.320Z,17.23
2019-04-06T13:55:57.247Z,17.42
2019-04-06T13:58:59.641Z,15.48
2019-04-06T14:02:06.922Z,17.77
2019-04-06T14:08:26.118Z,18.70
2019-04-06T14:10:17.120Z,15.30
2019-04-06T14:12:53.532Z,16.25
2019-04-06T14:16:01.481Z,16.80
2019-04-06T14:19:12.244Z,18.75
2019-04-06T14:21:47.509Z,18.00
2019-04-06T14:24:37.399Z,17.27
2019-04-06T14:27:22.576Z,15.53
2019-04-06T14:30:58.789Z,18.02
2019-04-06T14:33:34.960Z,18.75
2019-04-06T14:46:39.717Z,12.90
2019-04-06T14:52:37.299Z,13.80
2019-04-06T14:58:47.209Z,14.25
2019-04-06T15:01:54.725Z,16.05
2019-04-06T15:04:09.588Z,17.17
2019-04-06T15:07:10.716Z,19.98
2019-04-06T15:12:44.925Z,17.02
2019-04-06T15:17:11.259Z,15.28
2019-04-06T15:26:07.579Z,20.72
2019-04-06T15:40:49.826Z,10.50
2019-04-06T15:43:36.174Z,11.12
2019-04-06T15:46:17.755Z,10.85
2019-04-06T15:56:10.347Z,12.23
2019-04-06T16:02:40.762Z,14.90
2019-04-06T16:05:08.988Z,18.15
2019-04-06T16:07:56.025Z,10.80
2019-04-06T16:14:47.671Z,8.90
2019-04-06T16:27:21.395Z,15.72
2019-04-06T16:30:17.819Z,9.23
2019-04-06T16:42:29.816Z,11.15
2019-04-06T17:00:28.522Z,15.10
2019-04-06T17:02:59.850Z,17.00
2019-04-06T17:05:30.415Z,20.32
2019-04-06T17:08:10.814Z,8.75
2019-04-06T17:10:35.516Z,11.83
2019-04-06T17:13:12.366Z,11.88
2019-04-06T17:15:45.996Z,16.67
2019-04-06T17:18:32.704Z,14.18
2019-04-06T17:21:14.999Z,16.77
2019-04-06T17:23:45.563Z,16.30
2019-04-06T17:26:25.666Z,17.10
2019-04-06T17:28:56.578Z,15.98
2019-04-06T17:31:44.800Z,21.27
2019-04-06T17:34:19.265Z,19.70
2019-04-06T17:36:50.044Z,21.07
2019-04-06T17:39:20.590Z,18.42
2019-04-06T17:42:08.981Z,16.82
2019-04-06T17:44:41.953Z,19.87
2019-04-06T17:47:21.220Z,16.05
2019-04-06T17:50:07.656Z,18.57
2019-04-06T17:52:38.434Z,20.65
2019-04-06T17:55:21.380Z,23.07
2019-04-06T17:57:54.771Z,26.97
2019-04-06T18:00:37.131Z,19.75
2019-04-06T18:03:13.460Z,25.32
2019-04-06T18:06:00.349Z,19.05
2019-04-06T18:08:47.301Z,20.92
2019-04-06T18:11:18.203Z,21.10
2019-04-06T18:13:49.990Z,25.72
2019-04-06T18:16:23.461Z,20.23
2019-04-06T18:19:12.489Z,25.20
2019-04-06T18:21:41.418Z,17.67
2019-04-06T18:24:10.197Z,19.25
2019-04-06T18:26:39.050Z,21.57
2019-04-06T18:29:07.891Z,18.80
2019-04-06T18:31:40.865Z,22.73
2019-04-06T18:34:09.663Z,22.67
2019-04-06T18:36:42.681Z,22.77
2019-04-06T18:39:12.739Z,18.15
2019-04-06T18:41:41.422Z,21.05
2019-04-06T18:44:10.216Z,24.95
2019-04-06T18:46:39.389Z,25.43
2019-04-06T18:49:08.201Z,31.05
2019-04-06T18:51:37.288Z,27.73
2019-04-06T18:54:08.361Z,25.35
2019-04-06T18:56:36.974Z,22.48
2019-04-06T18:59:06.138Z,24.85
2019-04-06T19:01:35.996Z,21.37
2019-04-06T19:04:04.826Z,27.20
2019-04-06T19:06:33.810Z,23.52
2019-04-06T19:09:02.713Z,25.25
2019-04-06T19:11:31.508Z,19.55
2019-04-06T19:14:00.279Z,24.07
2019-04-06T19:16:29.542Z,24.18
2019-04-06T19:18:58.432Z,27.90
2019-04-06T19:21:27.438Z,23.12
2019-04-06T19:23:56.364Z,22.87
2019-04-06T19:26:25.370Z,21.77
2019-04-06T19:28:54.120Z,25.48
2019-04-06T19:31:22.957Z,26.80
2019-04-06T19:33:52.189Z,28.35
2019-04-06T19:36:21.415Z,23.70
2019-04-06T19:38:50.311Z,26.95
2019-04-06T19:41:19.127Z,26.05
2019-04-06T19:43:48.853Z,25.60
2019-04-06T19:46:17.882Z,22.15
2019-04-06T19:48:47.003Z,23.65
2019-04-06T19:51:15.981Z,24.63
2019-04-06T19:53:44.810Z,23.27
2019-04-06T19:56:13.614Z,21.62
2019-04-06T19:58:42.618Z,27.65
2019-04-06T20:01:11.461Z,22.67
2019-04-06T20:03:40.247Z,25.82
2019-04-06T20:06:09.071Z,23.07
2019-04-06T20:08:38.398Z,22.90
2019-04-06T20:11:07.409Z,25.60
2019-04-06T20:13:36.179Z,23.57
2019-04-06T20:16:07.933Z,21.50
2019-04-06T20:18:36.849Z,20.97
2019-04-06T20:21:06.064Z,21.93
2019-04-06T20:23:36.457Z,22.55
2019-04-06T20:26:05.750Z,28.90
2019-04-06T20:28:35.370Z,24.15
2019-04-06T20:31:04.816Z,25.27
2019-04-06T20:33:35.023Z,24.20
2019-04-06T20:36:04.701Z,25.15
2019-04-06T20:38:34.064Z,26.50
2019-04-06T20:41:03.015Z,27.15
2019-04-06T20:43:31.932Z,25.50
2019-04-06T20:46:00.922Z,25.82
2019-04-06T20:48:29.717Z,24.45
2019-04-06T20:50:58.471Z,26.40
2019-04-06T20:53:27.675Z,27.25
2019-04-06T20:55:56.634Z,26.73
2019-04-06T20:58:25.931Z,25.48
2019-04-06T21:00:54.829Z,23.60
2019-04-06T21:03:23.586Z,25.10
2019-04-06T21:05:53.305Z,29.63
2019-04-06T21:08:22.489Z,25.62
2019-04-06T21:10:52.106Z,23.40
2019-04-06T21:13:21.234Z,22.58
2019-04-06T21:15:51.054Z,30.52
2019-04-06T21:18:19.885Z,24.12
2019-04-06T21:20:48.680Z,25.95
2019-04-06T21:23:17.362Z,24.10
2019-04-06T21:25:46.507Z,24.35
2019-04-06T21:28:15.466Z,25.27
2019-04-06T21:30:44.376Z,25.65
2019-04-06T21:33:13.248Z,22.17
2019-04-06T21:35:43.497Z,22.82
2019-04-06T21:38:12.409Z,21.17
2019-04-06T21:40:41.270Z,22.67
2019-04-06T21:43:10.085Z,26.02
2019-04-06T21:45:39.333Z,25.65
2019-04-06T21:48:09.461Z,26.15
2019-04-06T21:50:38.631Z,24.35
2019-04-06T21:53:07.525Z,24.80
2019-04-06T21:55:36.861Z,27.25
2019-04-06T21:58:05.827Z,25.68
2019-04-06T22:00:36.592Z,27.00
2019-04-06T22:03:06.136Z,26.65
2019-04-06T22:05:36.297Z,28.25
2019-04-06T22:08:05.144Z,24.07
2019-04-06T22:10:34.297Z,27.90
2019-04-06T22:13:03.871Z,28.62
2019-04-06T22:15:32.717Z,24.77
2019-04-06T22:18:01.465Z,27.02
2019-04-06T22:20:30.816Z,28.52
2019-04-06T22:22:59.800Z,26.37
2019-04-06T22:25:28.978Z,26.75
2019-04-06T22:27:57.701Z,27.37
2019-04-06T22:30:26.834Z,28.75
2019-04-06T22:32:56.108Z,27.32
2019-04-06T22:35:25.003Z,26.40
2019-04-06T22:37:55.374Z,30.27
2019-04-06T22:40:24.682Z,27.13
2019-04-06T22:42:53.429Z,28.27
2019-04-06T22:45:24.198Z,27.90
2019-04-06T22:47:53.116Z,30.12
2019-04-06T22:50:23.624Z,26.93
2019-04-06T22:52:52.555Z,26.90
2019-04-06T22:55:21.487Z,26.10
2019-04-06T22:57:50.473Z,24.65
2019-04-06T23:00:39.838Z,25.85
2019-04-06T23:03:15.989Z,22.77
2019-04-06T23:05:51.941Z,24.70
2019-04-06T23:08:21.224Z,17.90
2019-04-06T23:10:50.468Z,25.17
2019-04-06T23:13:19.262Z,23.07
2019-04-06T23:15:48.796Z,19.07
2019-04-06T23:18:17.617Z,20.80
2019-04-06T23:20:46.412Z,21.12
2019-04-06T23:23:15.416Z,21.30
2019-04-06T23:25:47.234Z,21.23
2019-04-06T23:28:16.011Z,22.42
2019-04-06T23:30:45.254Z,22.95
2019-04-06T23:33:14.287Z,19.25
2019-04-06T23:35:43.176Z,23.65
2019-04-06T23:38:12.297Z,21.82
2019-04-06T23:40:41.063Z,21.20
2019-04-06T23:43:09.806Z,22.70
2019-04-06T23:45:39.386Z,20.82
2019-04-06T23:48:08.226Z,23.65
2019-04-06T23:50:37.037Z,21.65
2019-04-06T23:53:05.847Z,28.32
2019-04-06T23:55:35.332Z,21.62
2019-04-06T23:58:04.296Z,29.20
